Time;durP1;ratioP1;P1;durP2;ratioP2;P2;SDS_P1;SDS_P2;PMS_P1;PMS_P2;Temp;Humidity;BMP_temperature;BMP_pressure;BME280_temperature;BME280_humidity;BME280_pressure;Samples;Min_cycle;Max_cycle;Signal;HPM_P1;HPM_P2
2020/12/12 00:01:47;;;;;;;33.50;18.30;;;4.30;99.90;;;;;;5074841;28;20034;-67
2020/12/12 00:04:13;;;;;;;36.10;19.48;;;4.30;99.90;;;;;;5074168;28;20043;-67
2020/12/12 00:06:38;;;;;;;34.15;19.15;;;4.30;99.90;;;;;;5073279;28;20016;-67
2020/12/12 00:09:04;;;;;;;35.47;19.67;;;4.30;99.90;;;;;;5074443;28;20082;-67
2020/12/12 00:11:30;;;;;;;33.45;18.60;;;4.30;99.90;;;;;;5072815;28;20055;-67
2020/12/12 00:13:55;;;;;;;36.20;18.70;;;4.30;99.90;;;;;;5074103;28;20035;-67
2020/12/12 00:16:21;;;;;;;35.67;18.58;;;4.30;99.90;;;;;;5074573;28;20029;-67
2020/12/12 00:18:47;;;;;;;32.67;18.05;;;4.30;99.90;;;;;;5074520;28;20505;-67
2020/12/12 00:21:13;;;;;;;33.40;19.75;;;4.30;99.90;;;;;;5074189;28;20158;-67
2020/12/12 00:23:39;;;;;;;31.27;18.45;;;4.30;99.90;;;;;;5073916;28;20096;-67
2020/12/12 00:26:06;;;;;;;36.08;18.20;;;4.30;99.90;;;;;;5074338;28;20103;-67
2020/12/12 00:28:34;;;;;;;35.53;18.70;;;4.30;99.90;;;;;;5073236;28;20019;-65
2020/12/12 00:30:59;;;;;;;32.00;17.98;;;4.40;99.90;;;;;;5074379;28;20044;-67
2020/12/12 00:33:25;;;;;;;34.45;18.42;;;4.30;99.90;;;;;;5073567;28;20094;-67
2020/12/12 00:35:51;;;;;;;30.23;16.92;;;4.40;99.90;;;;;;5074293;28;20474;-67
2020/12/12 00:38:16;;;;;;;28.40;15.45;;;4.40;99.90;;;;;;5074297;28;20461;-67
2020/12/12 00:40:42;;;;;;;27.75;15.85;;;4.50;99.90;;;;;;5074212;28;20029;-67
2020/12/12 00:43:07;;;;;;;27.02;15.25;;;4.50;99.90;;;;;;5074224;28;20035;-67
2020/12/12 00:45:33;;;;;;;27.00;15.02;;;4.50;99.90;;;;;;5073834;28;20548;-67
2020/12/12 00:47:59;;;;;;;25.25;15.50;;;4.60;99.90;;;;;;5073890;28;20021;-67
2020/12/12 00:50:24;;;;;;;25.30;15.23;;;4.60;99.90;;;;;;5073568;28;20024;-67
2020/12/12 00:52:50;;;;;;;27.48;14.65;;;4.60;99.90;;;;;;5074092;28;20039;-67
2020/12/12 00:55:16;;;;;;;26.17;15.23;;;4.70;99.90;;;;;;5073820;28;20021;-67
2020/12/12 00:57:41;;;;;;;25.83;15.18;;;4.70;99.90;;;;;;5072222;28;20028;-67
2020/12/12 01:00:07;;;;;;;25.58;14.77;;;4.70;99.90;;;;;;5074008;28;20484;-67
2020/12/12 01:02:33;;;;;;;24.10;14.98;;;4.70;99.90;;;;;;5055513;28;20111;-67
2020/12/12 01:05:00;;;;;;;25.58;15.07;;;4.70;99.90;;;;;;5073271;28;20486;-67
2020/12/12 01:07:26;;;;;;;26.95;14.98;;;4.70;99.90;;;;;;5073963;28;20065;-67
2020/12/12 01:09:52;;;;;;;23.25;13.55;;;4.70;99.90;;;;;;5073932;28;20024;-67
2020/12/12 01:12:18;;;;;;;24.23;14.63;;;4.70;99.90;;;;;;5073639;28;20024;-67
2020/12/12 01:14:44;;;;;;;22.98;14.02;;;4.70;99.90;;;;;;5073595;28;20070;-67
2020/12/12 01:17:10;;;;;;;21.80;13.98;;;4.70;99.90;;;;;;5073878;28;20024;-67
2020/12/12 01:19:35;;;;;;;25.70;14.95;;;4.70;99.90;;;;;;5073584;28;20484;-67
2020/12/12 01:22:01;;;;;;;24.23;14.77;;;4.80;99.90;;;;;;5073551;28;20024;-67
2020/12/12 01:24:27;;;;;;;26.83;14.95;;;4.80;99.90;;;;;;5073691;28;20074;-65
2020/12/12 01:26:53;;;;;;;23.50;14.77;;;4.80;99.90;;;;;;5076164;28;20052;-67
2020/12/12 01:29:18;;;;;;;22.27;14.23;;;4.80;99.90;;;;;;5077784;28;20048;-67
2020/12/12 01:31:47;;;;;;;24.50;14.77;;;4.80;99.90;;;;;;5077171;28;20099;-67
2020/12/12 01:34:12;;;;;;;23.70;14.10;;;4.80;99.90;;;;;;5077423;28;20020;-67
2020/12/12 01:36:38;;;;;;;22.98;13.98;;;4.80;99.90;;;;;;5077105;28;20366;-67
2020/12/12 01:39:04;;;;;;;22.38;14.07;;;4.80;99.90;;;;;;5077563;28;20044;-67
2020/12/12 01:41:29;;;;;;;24.58;14.32;;;4.70;99.90;;;;;;5077532;28;20032;-67
2020/12/12 01:43:55;;;;;;;23.13;14.15;;;4.80;99.90;;;;;;5077402;28;20517;-67
2020/12/12 01:46:24;;;;;;;24.13;14.25;;;4.80;99.90;;;;;;5077452;28;20351;-67
2020/12/12 01:48:52;;;;;;;28.17;16.48;;;4.80;99.90;;;;;;5076857;28;20061;-67
2020/12/12 01:51:20;;;;;;;27.02;15.85;;;4.70;99.90;;;;;;5077352;28;20042;-67
2020/12/12 01:53:49;;;;;;;27.48;15.25;;;4.70;99.90;;;;;;5077278;28;20028;-67
2020/12/12 01:56:16;;;;;;;28.10;15.82;;;4.70;99.90;;;;;;5075819;28;20099;-67
2020/12/12 01:58:42;;;;;;;26.70;15.60;;;4.80;99.90;;;;;;5077194;28;20021;-67
2020/12/12 02:01:10;;;;;;;25.08;14.95;;;4.70;99.90;;;;;;5077151;28;20021;-67
2020/12/12 02:03:41;;;;;;;28.67;15.25;;;4.70;99.90;;;;;;5076367;28;20024;-67
2020/12/12 02:06:10;;;;;;;26.30;14.45;;;4.70;99.90;;;;;;5077006;28;20048;-67
2020/12/12 02:08:36;;;;;;;29.13;15.40;;;4.70;99.90;;;;;;5077012;28;20378;-67
2020/12/12 02:11:03;;;;;;;25.88;15.75;;;4.70;99.90;;;;;;5076958;28;20021;-67
2020/12/12 02:13:28;;;;;;;28.55;16.08;;;4.70;99.90;;;;;;5076924;28;20462;-67
2020/12/12 02:15:54;;;;;;;23.90;15.27;;;4.70;99.90;;;;;;5076630;28;20082;-67
2020/12/12 02:18:23;;;;;;;26.77;15.82;;;4.70;99.90;;;;;;5075725;28;20380;-67
2020/12/12 02:20:54;;;;;;;26.33;15.02;;;4.70;99.90;;;;;;5076799;28;20416;-67
2020/12/12 02:23:20;;;;;;;29.33;16.13;;;4.60;99.90;;;;;;5075728;28;20074;-65
2020/12/12 02:25:46;;;;;;;27.98;16.88;;;4.60;99.90;;;;;;5076635;28;20077;-67
2020/12/12 02:28:13;;;;;;;28.38;16.30;;;4.60;99.90;;;;;;5076702;28;20455;-65
2020/12/12 02:30:39;;;;;;;23.38;14.45;;;4.60;99.90;;;;;;5076656;28;20021;-68
2020/12/12 02:33:04;;;;;;;26.52;14.88;;;4.60;99.90;;;;;;5076523;28;20150;-65
2020/12/12 02:35:30;;;;;;;26.45;15.02;;;4.60;99.90;;;;;;5076017;28;20032;-65
2020/12/12 02:37:55;;;;;;;25.40;15.15;;;4.60;99.90;;;;;;5075486;28;20028;-65
2020/12/12 02:40:21;;;;;;;28.00;16.52;;;4.70;99.90;;;;;;5074622;28;20032;-67
2020/12/12 02:42:47;;;;;;;26.30;14.45;;;4.70;99.90;;;;;;5076420;28;20110;-67
2020/12/12 02:45:12;;;;;;;25.98;15.43;;;4.70;99.90;;;;;;5076282;28;20060;-67
2020/12/12 02:47:40;;;;;;;23.75;14.80;;;4.70;99.90;;;;;;5076336;28;20027;-67
2020/12/12 02:50:11;;;;;;;26.38;15.55;;;4.80;99.90;;;;;;5074881;28;20494;-67
2020/12/12 02:52:38;;;;;;;28.17;15.25;;;4.80;99.90;;;;;;5074532;28;20115;-67
2020/12/12 02:55:05;;;;;;;24.63;14.85;;;4.80;99.90;;;;;;5075924;28;20486;-68
2020/12/12 02:57:32;;;;;;;24.80;15.10;;;4.80;99.90;;;;;;5075861;28;20029;-68
2020/12/12 02:59:58;;;;;;;26.50;14.73;;;4.80;99.90;;;;;;5075810;28;20033;-67
2020/12/12 03:02:23;;;;;;;27.38;15.27;;;4.80;99.90;;;;;;5076008;28;20029;-65
2020/12/12 03:04:49;;;;;;;29.10;14.48;;;4.80;99.90;;;;;;5075436;28;20087;-66
2020/12/12 03:07:15;;;;;;;22.08;13.25;;;4.80;99.90;;;;;;5075941;28;20357;-66
2020/12/12 03:09:40;;;;;;;26.55;15.15;;;4.80;99.90;;;;;;5075906;28;20032;-66
2020/12/12 03:12:06;;;;;;;24.65;15.10;;;4.90;99.90;;;;;;5075574;28;20390;-66
2020/12/12 03:14:32;;;;;;;23.92;13.77;;;4.90;99.90;;;;;;5075795;28;20108;-66
2020/12/12 03:16:57;;;;;;;22.05;13.68;;;4.90;99.90;;;;;;5075744;28;20112;-66
2020/12/12 03:19:23;;;;;;;24.38;13.15;;;4.90;99.90;;;;;;5075714;28;20029;-66
2020/12/12 03:21:48;;;;;;;21.67;13.98;;;4.90;99.90;;;;;;5075103;28;20028;-65
2020/12/12 03:24:14;;;;;;;21.83;13.65;;;5.00;99.90;;;;;;5075558;28;20027;-66
2020/12/12 03:26:40;;;;;;;23.20;13.82;;;5.00;99.90;;;;;;5074117;28;20621;-66
2020/12/12 03:29:05;;;;;;;20.65;12.40;;;5.00;99.90;;;;;;5073697;28;20050;-66
2020/12/12 03:31:31;;;;;;;22.63;13.32;;;5.00;99.90;;;;;;5075455;28;20052;-66
2020/12/12 03:33:56;;;;;;;23.10;13.88;;;5.00;99.90;;;;;;5075431;28;20028;-66
2020/12/12 03:36:22;;;;;;;21.50;13.55;;;5.10;99.90;;;;;;5075360;28;20070;-66
2020/12/12 03:38:47;;;;;;;22.98;13.75;;;5.00;99.90;;;;;;5075314;28;20078;-67
2020/12/12 03:41:13;;;;;;;20.75;13.18;;;5.10;99.90;;;;;;5074115;28;20025;-68
2020/12/12 03:43:39;;;;;;;21.55;13.32;;;5.00;99.90;;;;;;5074664;28;20099;-67
2020/12/12 03:46:04;;;;;;;23.33;13.77;;;5.10;99.90;;;;;;5075065;28;20025;-67
2020/12/12 03:48:30;;;;;;;22.55;13.27;;;5.10;99.90;;;;;;5073765;28;20079;-67
2020/12/12 03:50:55;;;;;;;23.40;14.68;;;5.00;99.90;;;;;;5075076;28;20017;-67
2020/12/12 03:53:21;;;;;;;22.23;13.90;;;5.00;99.90;;;;;;5075008;28;20116;-67
2020/12/12 03:55:46;;;;;;;19.17;12.55;;;5.00;99.90;;;;;;5074972;28;20024;-67
2020/12/12 03:58:12;;;;;;;19.23;13.07;;;5.10;99.90;;;;;;5074901;28;20039;-67
2020/12/12 04:00:38;;;;;;;19.08;12.77;;;5.10;99.90;;;;;;5074887;28;20033;-67
2020/12/12 04:03:03;;;;;;;25.85;13.60;;;5.10;99.90;;;;;;5074802;28;20097;-67
2020/12/12 04:05:29;;;;;;;20.80;13.05;;;5.10;99.90;;;;;;5074090;28;20119;-67
2020/12/12 04:07:54;;;;;;;20.35;13.30;;;5.10;99.90;;;;;;5074770;28;20371;-67
2020/12/12 04:10:20;;;;;;;20.20;12.57;;;5.10;99.90;;;;;;5073280;28;20058;-67
2020/12/12 04:12:46;;;;;;;22.60;13.13;;;5.10;99.90;;;;;;5074650;28;20369;-67
2020/12/12 04:15:11;;;;;;;20.58;13.27;;;5.10;99.90;;;;;;5074086;28;20098;-67
2020/12/12 04:17:37;;;;;;;19.48;12.65;;;5.10;99.90;;;;;;5074594;28;20082;-67
2020/12/12 04:20:02;;;;;;;22.63;14.25;;;5.10;99.90;;;;;;5074550;28;20060;-67
2020/12/12 04:22:28;;;;;;;20.00;12.55;;;5.20;99.90;;;;;;5074491;28;20094;-67
2020/12/12 04:24:54;;;;;;;22.25;13.32;;;5.20;99.90;;;;;;5074412;28;20020;-67
2020/12/12 04:27:19;;;;;;;20.33;13.30;;;5.20;99.90;;;;;;5074436;28;20035;-67
2020/12/12 04:29:45;;;;;;;20.27;12.95;;;5.20;99.90;;;;;;5074382;28;20049;-67
2020/12/12 04:32:11;;;;;;;23.70;14.32;;;5.20;99.90;;;;;;5072562;28;20381;-67
2020/12/12 04:34:36;;;;;;;19.00;12.50;;;5.20;99.90;;;;;;5073773;28;20150;-67
2020/12/12 04:37:02;;;;;;;21.38;12.45;;;5.20;99.90;;;;;;5073735;28;20032;-68
2020/12/12 04:39:27;;;;;;;19.85;12.75;;;5.20;99.90;;;;;;5074285;28;20029;-67
2020/12/12 04:41:54;;;;;;;18.35;12.13;;;5.30;99.90;;;;;;5072792;28;20497;-67
2020/12/12 04:44:20;;;;;;;20.55;13.35;;;5.20;99.90;;;;;;5073578;28;20031;-67
2020/12/12 04:46:47;;;;;;;22.92;14.23;;;5.20;99.90;;;;;;5072474;28;20024;-67
2020/12/12 04:49:13;;;;;;;20.55;13.13;;;5.20;99.90;;;;;;5073858;28;20099;-67
2020/12/12 04:51:39;;;;;;;22.10;13.52;;;5.20;99.90;;;;;;5073572;28;20059;-67
2020/12/12 04:54:08;;;;;;;19.23;12.55;;;5.20;99.90;;;;;;5073810;28;20381;-67
2020/12/12 04:56:35;;;;;;;20.77;12.82;;;5.20;99.90;;;;;;5073774;28;20031;-67
2020/12/12 04:59:04;;;;;;;18.48;12.20;;;5.20;99.90;;;;;;5074024;28;20085;-67
2020/12/12 05:01:32;;;;;;;19.98;12.18;;;5.20;99.90;;;;;;5073587;28;20086;-67
2020/12/12 05:04:01;;;;;;;21.23;13.02;;;5.20;99.90;;;;;;5073180;28;20052;-67
2020/12/12 05:06:30;;;;;;;21.40;12.60;;;5.20;99.90;;;;;;5073655;28;20452;-67
2020/12/12 05:08:56;;;;;;;20.10;12.65;;;5.20;99.90;;;;;;5073972;28;20075;-67
2020/12/12 05:11:23;;;;;;;19.65;12.80;;;5.20;99.90;;;;;;5073631;28;20436;-67
2020/12/12 05:13:49;;;;;;;22.40;13.30;;;5.20;99.90;;;;;;5073892;28;20016;-68
2020/12/12 05:16:14;;;;;;;22.20;13.32;;;5.20;99.90;;;;;;5073327;28;20024;-66
2020/12/12 05:18:41;;;;;;;20.83;13.15;;;5.20;99.90;;;;;;5073298;28;20033;-66
2020/12/12 05:21:07;;;;;;;22.08;13.85;;;5.20;99.90;;;;;;5073822;28;20074;-66
2020/12/12 05:23:33;;;;;;;20.10;13.15;;;5.20;99.90;;;;;;5073772;28;20025;-66
2020/12/12 05:25:58;;;;;;;20.95;13.52;;;5.20;99.90;;;;;;5073147;28;20028;-68
2020/12/12 05:28:25;;;;;;;21.15;12.60;;;5.20;99.90;;;;;;5073741;28;20056;-68
2020/12/12 05:30:52;;;;;;;21.15;13.20;;;5.20;99.90;;;;;;5073493;28;20070;-67
2020/12/12 05:33:21;;;;;;;19.80;12.70;;;5.20;99.90;;;;;;5072747;28;20027;-67
2020/12/12 05:35:47;;;;;;;22.17;12.98;;;5.20;99.90;;;;;;5073449;28;20071;-67
2020/12/12 05:38:13;;;;;;;20.73;13.05;;;5.20;99.90;;;;;;5073101;28;20052;-67
2020/12/12 05:40:42;;;;;;;23.08;13.02;;;5.10;99.90;;;;;;5073669;28;20063;-65
2020/12/12 05:43:10;;;;;;;19.60;12.68;;;5.10;99.90;;;;;;5073362;28;20048;-67
2020/12/12 05:45:36;;;;;;;20.15;12.88;;;5.10;99.90;;;;;;5073245;28;20462;-67
2020/12/12 05:48:04;;;;;;;23.23;12.75;;;5.10;99.90;;;;;;5073536;28;20111;-67
2020/12/12 05:50:30;;;;;;;21.33;13.02;;;5.10;99.90;;;;;;5073581;28;20079;-67
2020/12/12 05:52:56;;;;;;;23.30;13.98;;;5.10;99.90;;;;;;5073188;28;20083;-67
2020/12/12 05:55:28;;;;;;;20.88;13.07;;;5.10;99.90;;;;;;5073498;28;20028;-67
2020/12/12 05:57:54;;;;;;;18.42;12.00;;;5.10;99.90;;;;;;5073475;28;20091;-67
2020/12/12 06:00:21;;;;;;;20.65;13.07;;;5.10;99.90;;;;;;5073349;28;20035;-65
2020/12/12 06:02:54;;;;;;;22.70;12.93;;;5.10;99.90;;;;;;5072968;28;20032;-67
2020/12/12 06:05:28;;;;;;;20.85;13.02;;;5.10;99.90;;;;;;5071487;28;20367;-67
2020/12/12 06:07:58;;;;;;;21.38;12.95;;;5.10;99.90;;;;;;5073362;28;20043;-67
2020/12/12 06:10:27;;;;;;;22.13;13.52;;;5.10;99.90;;;;;;5073362;28;20032;-67
2020/12/12 06:12:58;;;;;;;20.20;12.82;;;5.10;99.90;;;;;;5075210;28;20016;-67
2020/12/12 06:15:33;;;;;;;19.80;12.25;;;5.10;99.90;;;;;;5076848;28;20021;-67
2020/12/12 06:18:17;;;;;;;18.67;12.20;;;5.10;99.90;;;;;;5075097;28;20107;-67
2020/12/12 06:20:44;;;;;;;20.45;12.65;;;5.10;99.90;;;;;;5075293;28;20035;-65
2020/12/12 06:23:11;;;;;;;20.17;12.25;;;5.10;99.90;;;;;;5076768;28;20055;-65
2020/12/12 06:25:36;;;;;;;19.52;12.85;;;5.10;99.90;;;;;;5076646;28;20033;-67
2020/12/12 06:28:03;;;;;;;19.73;12.93;;;5.10;99.90;;;;;;5076662;28;20454;-67
2020/12/12 06:30:38;;;;;;;19.80;12.20;;;5.10;99.90;;;;;;5076354;28;20487;-67
2020/12/12 06:33:04;;;;;;;17.27;11.88;;;5.10;99.90;;;;;;5076577;28;20021;-67
2020/12/12 06:35:32;;;;;;;19.35;11.30;;;5.10;99.90;;;;;;5076502;28;20027;-67
2020/12/12 06:40:57;;;;;;;17.88;13.00;;;5.10;99.90;;;;;;5110898;27;20398;-69
2020/12/12 06:43:37;;;;;;;18.50;12.25;;;5.10;99.90;;;;;;5111642;28;20020;-69
2020/12/12 06:46:06;;;;;;;16.98;11.18;;;5.20;99.90;;;;;;5111874;28;20376;-69
2020/12/12 06:48:33;;;;;;;20.83;10.93;;;5.20;99.90;;;;;;5111823;28;20016;-69
2020/12/12 06:51:00;;;;;;;16.80;10.50;;;5.20;99.90;;;;;;5111219;28;20027;-69
2020/12/12 06:53:27;;;;;;;16.25;10.82;;;5.20;99.90;;;;;;5111461;28;20034;-69
2020/12/12 06:56:12;;;;;;;19.15;10.80;;;5.20;99.90;;;;;;5111710;28;20016;-69
2020/12/12 06:58:38;;;;;;;16.48;10.50;;;5.20;99.90;;;;;;5111259;28;20424;-69
2020/12/12 07:01:24;;;;;;;19.75;11.80;;;5.20;99.90;;;;;;5111279;28;20107;-69
2020/12/12 07:04:00;;;;;;;17.10;11.40;;;5.20;99.90;;;;;;5110927;28;20480;-69
2020/12/12 07:06:28;;;;;;;18.15;12.07;;;5.20;99.90;;;;;;5111482;28;20192;-69
2020/12/12 07:09:00;;;;;;;17.63;11.57;;;5.20;99.90;;;;;;5092951;28;20127;-68
2020/12/12 07:11:26;;;;;;;21.77;12.48;;;5.20;99.90;;;;;;5109994;28;20020;-69
2020/12/12 07:13:54;;;;;;;20.60;11.95;;;5.20;99.90;;;;;;5111138;28;20437;-69
2020/12/12 07:16:21;;;;;;;20.63;12.40;;;5.20;99.90;;;;;;5111059;28;20050;-69
2020/12/12 07:18:48;;;;;;;22.08;12.50;;;5.20;99.90;;;;;;5110058;28;20024;-69
2020/12/12 07:21:14;;;;;;;22.60;12.18;;;5.30;99.90;;;;;;5111249;28;20024;-69
2020/12/12 07:23:39;;;;;;;19.25;11.82;;;5.30;99.90;;;;;;5110947;28;20077;-69
2020/12/12 07:26:06;;;;;;;20.10;12.60;;;5.30;99.90;;;;;;5109339;28;20073;-69
2020/12/12 07:28:32;;;;;;;19.00;11.73;;;5.30;99.90;;;;;;5110824;28;20090;-69
2020/12/12 07:30:57;;;;;;;19.85;12.15;;;5.30;99.90;;;;;;5110525;28;20095;-69
2020/12/12 07:33:23;;;;;;;21.92;12.93;;;5.30;99.90;;;;;;5110989;28;20020;-69
2020/12/12 07:35:49;;;;;;;19.88;12.00;;;5.30;99.90;;;;;;5110959;28;20057;-69
2020/12/12 07:38:14;;;;;;;18.88;12.85;;;5.30;99.90;;;;;;5110923;28;20385;-69
2020/12/12 07:40:40;;;;;;;17.48;11.70;;;5.30;99.90;;;;;;5108910;28;20096;-69
2020/12/12 07:43:08;;;;;;;18.80;11.23;;;5.30;99.90;;;;;;5092049;28;20110;-69
2020/12/12 07:46:09;;;;;;;22.42;13.18;;;5.30;99.90;;;;;;5109353;28;20027;-69
2020/12/12 07:48:21;;;;;;;22.00;12.40;;;5.30;99.90;;;;;;5110074;28;20150;-69
2020/12/12 07:50:46;;;;;;;24.30;12.40;;;5.30;99.90;;;;;;5105280;28;20488;-69
2020/12/12 07:53:14;;;;;;;22.85;12.10;;;5.30;99.90;;;;;;5097085;28;20032;-69
2020/12/12 07:55:43;;;;;;;21.35;12.05;;;5.30;99.90;;;;;;5078884;28;20028;-69
2020/12/12 07:58:27;;;;;;;17.92;11.52;;;5.30;99.90;;;;;;5095705;28;20034;-69
2020/12/12 08:01:01;;;;;;;20.80;11.57;;;5.30;99.90;;;;;;5096325;28;20026;-69
2020/12/12 08:03:28;;;;;;;18.15;11.00;;;5.30;99.90;;;;;;5096898;28;20031;-69
2020/12/12 08:06:10;;;;;;;17.48;11.32;;;5.40;99.90;;;;;;5096833;28;20415;-69
2020/12/12 08:08:36;;;;;;;18.48;11.35;;;5.40;99.90;;;;;;5094965;28;20020;-69
2020/12/12 08:11:04;;;;;;;18.63;10.80;;;5.40;99.90;;;;;;5095559;28;20024;-69
2020/12/12 08:13:30;;;;;;;19.73;11.95;;;5.40;99.90;;;;;;5096641;28;20020;-69
2020/12/12 08:16:14;;;;;;;15.95;10.32;;;5.40;99.90;;;;;;5096397;28;20069;-69
2020/12/12 08:18:40;;;;;;;18.88;12.15;;;5.50;99.90;;;;;;5094948;28;20072;-69
2020/12/12 08:21:10;;;;;;;18.02;11.05;;;5.50;99.90;;;;;;5095986;28;20028;-69
2020/12/12 08:23:37;;;;;;;17.73;10.70;;;5.50;99.90;;;;;;5096214;28;20026;-69
2020/12/12 08:26:03;;;;;;;17.63;11.45;;;5.50;99.90;;;;;;5094993;28;20159;-69
2020/12/12 08:28:29;;;;;;;19.38;11.40;;;5.50;99.90;;;;;;5096091;28;20016;-69
2020/12/12 08:31:23;;;;;;;20.80;12.18;;;5.50;99.90;;;;;;5096416;28;20035;-69
2020/12/12 08:33:56;;;;;;;18.58;11.40;;;5.50;99.90;;;;;;5096017;28;20362;-69
2020/12/12 08:36:28;;;;;;;19.83;11.45;;;5.60;99.90;;;;;;5095711;28;20024;-69
2020/12/12 08:38:56;;;;;;;19.48;11.15;;;5.60;99.90;;;;;;5095849;28;20043;-69
2020/12/12 08:41:28;;;;;;;18.48;10.90;;;5.60;99.90;;;;;;5096124;28;20023;-69
2020/12/12 08:43:54;;;;;;;17.65;10.50;;;5.70;99.90;;;;;;5094924;28;20070;-69
2020/12/12 08:46:19;;;;;;;18.20;11.95;;;5.70;99.90;;;;;;5096008;28;20023;-69
2020/12/12 08:48:45;;;;;;;13.25;9.98;;;5.70;99.90;;;;;;5094495;28;20055;-69
2020/12/12 08:51:11;;;;;;;16.38;10.65;;;5.70;99.90;;;;;;5094478;28;20103;-69
2020/12/12 08:53:41;;;;;;;18.08;10.88;;;5.80;99.90;;;;;;5094131;28;20478;-69
2020/12/12 08:56:15;;;;;;;17.77;11.25;;;5.80;99.90;;;;;;5095843;28;20073;-69
2020/12/12 08:58:55;;;;;;;15.65;10.60;;;5.80;99.90;;;;;;5095456;28;20035;-69
2020/12/12 09:01:32;;;;;;;15.98;10.48;;;5.80;99.90;;;;;;5095478;28;20046;-69
2020/12/12 09:06:55;;;;;;;16.50;10.93;;;5.90;99.90;;;;;;5112244;27;20352;-70
2020/12/12 09:09:28;;;;;;;15.70;10.95;;;6.00;99.90;;;;;;5111733;28;20024;-68
2020/12/12 09:12:10;;;;;;;;;;;5.90;99.90;;;;;;5112375;28;20030;-69
2020/12/12 09:14:38;;;;;;;15.68;10.32;;;5.90;99.90;;;;;;5111843;28;19943;-69
2020/12/12 09:17:08;;;;;;;15.50;10.25;;;6.00;99.90;;;;;;5111533;28;20073;-69
2020/12/12 09:19:33;;;;;;;16.48;11.27;;;6.00;99.90;;;;;;5109926;28;20030;-69
2020/12/12 09:21:59;;;;;;;17.67;10.18;;;6.00;99.90;;;;;;5110206;28;20036;-69
2020/12/12 09:24:25;;;;;;;17.65;11.90;;;6.10;99.90;;;;;;5111536;28;20027;-69
2020/12/12 09:26:54;;;;;;;16.95;11.38;;;6.20;99.90;;;;;;5110606;28;20395;-69
2020/12/12 09:29:20;;;;;;;18.65;11.90;;;6.20;99.90;;;;;;5110532;28;20024;-68
2020/12/12 09:31:48;;;;;;;14.98;11.13;;;6.30;99.90;;;;;;5111543;28;20016;-70
2020/12/12 09:34:14;;;;;;;17.92;11.13;;;6.30;99.90;;;;;;5109954;28;20016;-70
2020/12/12 09:36:40;;;;;;;16.02;10.77;;;6.40;99.90;;;;;;5110423;28;20016;-69
2020/12/12 09:39:06;;;;;;;18.73;11.35;;;6.40;99.90;;;;;;5109522;28;20073;-68
2020/12/12 09:41:32;;;;;;;14.88;10.20;;;6.50;99.90;;;;;;5110152;28;20016;-70
2020/12/12 09:43:58;;;;;;;14.55;10.05;;;6.60;99.90;;;;;;5109863;28;20031;-70
2020/12/12 09:46:23;;;;;;;14.25;10.07;;;6.60;99.90;;;;;;5109731;28;20032;-70
2020/12/12 09:48:49;;;;;;;15.57;10.18;;;6.60;99.90;;;;;;5111202;28;20075;-70
2020/12/12 09:51:16;;;;;;;15.65;10.30;;;6.60;99.90;;;;;;5110887;28;20484;-69
2020/12/12 09:53:42;;;;;;;14.65;10.00;;;6.60;99.90;;;;;;5111123;28;20069;-68
2020/12/12 09:56:11;;;;;;;14.55;9.88;;;6.70;99.90;;;;;;5111111;28;20020;-69
2020/12/12 09:58:36;;;;;;;13.88;9.75;;;6.70;99.90;;;;;;5109171;28;20055;-70
2020/12/12 10:01:05;;;;;;;11.57;8.68;;;6.80;99.90;;;;;;5110613;28;20059;-70
2020/12/12 10:03:31;;;;;;;13.00;9.05;;;6.80;99.90;;;;;;5109457;28;20069;-69
2020/12/12 10:05:56;;;;;;;15.15;9.77;;;6.90;99.90;;;;;;5108944;28;20440;-69
2020/12/12 10:08:22;;;;;;;13.50;9.32;;;7.00;99.90;;;;;;5109610;28;20151;-70
2020/12/12 10:10:48;;;;;;;12.65;9.27;;;7.00;99.90;;;;;;5110799;28;20414;-69
2020/12/12 10:13:13;;;;;;;12.90;8.77;;;7.00;99.90;;;;;;5108896;28;20024;-70
2020/12/12 10:15:39;;;;;;;14.15;8.52;;;7.00;99.90;;;;;;5109241;28;20070;-70
2020/12/12 10:18:08;;;;;;;13.45;9.30;;;6.90;99.90;;;;;;5094653;28;20059;-70
2020/12/12 10:20:35;;;;;;;10.50;8.10;;;7.00;99.90;;;;;;5095522;28;20078;-70
2020/12/12 10:23:00;;;;;;;11.05;7.90;;;7.00;99.90;;;;;;5097001;28;20016;-70
2020/12/12 10:25:26;;;;;;;10.75;7.55;;;7.00;99.90;;;;;;5078244;28;20031;-70
2020/12/12 10:27:51;;;;;;;13.38;8.68;;;6.90;99.90;;;;;;5095884;28;20024;-69
2020/12/12 10:30:17;;;;;;;14.98;8.10;;;7.00;99.90;;;;;;5094999;28;20099;-70
2020/12/12 10:32:43;;;;;;;10.55;8.02;;;7.00;99.90;;;;;;5096463;28;20024;-70
2020/12/12 10:35:10;;;;;;;12.10;7.85;;;7.00;99.90;;;;;;5094908;28;20035;-70
2020/12/12 10:37:37;;;;;;;11.75;7.60;;;7.00;99.90;;;;;;5096347;28;20538;-69
2020/12/12 10:42:34;;;;;;;11.95;8.38;;;7.10;99.90;;;;;;5095107;28;20023;-70
2020/12/12 10:45:00;;;;;;;10.73;7.95;;;7.10;99.90;;;;;;5096441;28;20115;-70
2020/12/12 10:47:26;;;;;;;13.75;7.80;;;7.20;99.90;;;;;;5095353;28;20035;-70
2020/12/12 10:49:52;;;;;;;12.10;7.45;;;7.20;99.90;;;;;;5095407;28;20034;-69
2020/12/12 10:52:18;;;;;;;10.85;8.10;;;7.20;99.90;;;;;;5095429;28;20472;-69
2020/12/12 10:54:46;;;;;;;12.18;7.95;;;7.30;99.90;;;;;;5095774;28;20024;-69
2020/12/12 10:57:12;;;;;;;11.98;8.32;;;7.30;99.90;;;;;;5094762;28;20027;-69
2020/12/12 10:59:42;;;;;;;11.90;7.90;;;7.30;99.90;;;;;;5095128;28;20028;-69
2020/12/12 11:02:08;;;;;;;11.60;8.20;;;7.30;99.90;;;;;;5095968;28;20074;-70
2020/12/12 11:04:35;;;;;;;14.95;8.57;;;7.40;99.90;;;;;;5094341;28;20048;-69
2020/12/12 11:07:00;;;;;;;11.27;8.20;;;7.40;99.90;;;;;;5094935;28;20020;-70
2020/12/12 11:09:26;;;;;;;9.27;7.20;;;7.50;99.90;;;;;;5094579;28;20487;-69
2020/12/12 11:11:51;;;;;;;10.65;8.30;;;7.60;99.90;;;;;;5094797;28;20466;-69
2020/12/12 11:14:17;;;;;;;15.20;8.38;;;7.60;99.90;;;;;;5077252;28;20020;-69
2020/12/12 11:16:42;;;;;;;11.10;8.25;;;7.60;99.90;;;;;;5094066;28;20036;-69
2020/12/12 11:19:08;;;;;;;10.73;8.43;;;7.60;99.90;;;;;;5094466;28;20373;-69
2020/12/12 11:21:34;;;;;;;15.52;9.07;;;7.60;99.90;;;;;;5094367;28;20035;-70
2020/12/12 11:23:59;;;;;;;13.25;8.80;;;7.60;99.90;;;;;;5095798;28;20389;-69
2020/12/12 11:26:25;;;;;;;11.23;8.05;;;7.60;99.90;;;;;;5095100;28;20024;-69
2020/12/12 11:28:51;;;;;;;10.90;8.80;;;7.60;99.90;;;;;;5093229;28;20051;-69
2020/12/12 11:31:20;;;;;;;13.32;9.35;;;7.70;99.90;;;;;;5095623;28;20024;-69
2020/12/12 11:33:49;;;;;;;12.05;8.48;;;7.70;99.90;;;;;;5095569;28;20099;-70
2020/12/12 11:39:08;;;;;;;11.75;8.18;;;7.80;99.90;;;;;;5093771;28;20028;-70
2020/12/12 11:41:48;;;;;;;13.70;9.57;;;7.80;99.90;;;;;;5095199;28;20354;-70
2020/12/12 11:44:28;;;;;;;14.02;9.40;;;7.80;99.90;;;;;;5095375;28;20028;-70
2020/12/12 11:46:54;;;;;;;12.80;9.52;;;7.80;99.90;;;;;;5094764;28;20042;-70
2020/12/12 11:49:20;;;;;;;14.55;10.32;;;7.80;99.90;;;;;;5095242;28;20020;-70
2020/12/12 11:51:47;;;;;;;15.60;9.90;;;7.80;99.90;;;;;;5094975;28;20147;-69
2020/12/12 11:54:12;;;;;;;15.73;10.20;;;7.80;99.90;;;;;;5076487;28;20388;-70
2020/12/12 11:56:38;;;;;;;17.20;10.48;;;7.80;99.90;;;;;;5093445;28;20028;-70
2020/12/12 11:59:04;;;;;;;19.50;11.50;;;7.90;99.90;;;;;;5095079;28;20039;-70
2020/12/12 12:01:29;;;;;;;15.18;10.27;;;7.90;99.90;;;;;;5094976;28;20032;-70
2020/12/12 12:03:56;;;;;;;16.52;10.20;;;7.90;99.90;;;;;;5094970;28;20034;-70
2020/12/12 12:06:22;;;;;;;11.07;8.85;;;8.00;99.90;;;;;;5094252;28;20477;-70
2020/12/12 12:09:12;;;;;;;13.07;9.27;;;8.10;99.90;;;;;;5093111;28;20024;-70
2020/12/12 12:11:35;;;;;;;11.35;8.70;;;8.10;99.90;;;;;;5094218;28;20024;-69
2020/12/12 12:14:04;;;;;;;11.25;8.55;;;8.10;99.90;;;;;;5093353;28;20017;-70
2020/12/12 12:16:39;;;;;;;11.68;8.98;;;8.20;99.90;;;;;;5093174;28;20396;-69
2020/12/12 12:19:06;;;;;;;13.52;9.93;;;8.10;99.90;;;;;;5092894;28;20031;-70
2020/12/12 12:21:34;;;;;;;14.15;9.35;;;8.10;99.90;;;;;;5094009;28;20077;-70
2020/12/12 12:24:00;;;;;;;15.85;9.93;;;8.10;99.90;;;;;;5093244;28;20048;-69
2020/12/12 12:26:26;;;;;;;14.98;9.68;;;8.10;99.90;;;;;;5094524;28;20028;-70
2020/12/12 12:28:52;;;;;;;14.35;9.50;;;8.10;99.90;;;;;;5092810;28;20370;-70
2020/12/12 12:31:20;;;;;;;12.13;9.10;;;8.20;99.90;;;;;;5093114;28;20023;-69
2020/12/12 12:33:46;;;;;;;10.75;8.73;;;8.10;99.90;;;;;;5092708;28;20027;-70
2020/12/12 12:36:11;;;;;;;15.20;9.93;;;8.10;99.90;;;;;;5093029;28;20020;-70
2020/12/12 12:38:37;;;;;;;12.70;9.13;;;8.10;99.90;;;;;;5094420;28;20494;-70
2020/12/12 12:41:02;;;;;;;11.68;8.85;;;8.10;99.90;;;;;;5075511;28;20072;-70
2020/12/12 12:43:28;;;;;;;12.00;9.13;;;8.10;99.90;;;;;;5094411;28;20158;-70
2020/12/12 12:45:54;;;;;;;12.65;9.68;;;8.10;99.90;;;;;;5092765;28;20024;-70
2020/12/12 12:48:19;;;;;;;12.23;9.20;;;8.10;99.90;;;;;;5092486;28;20389;-70
2020/12/12 12:50:45;;;;;;;14.05;10.40;;;8.10;99.90;;;;;;5093148;28;20088;-70